Mc Connells, South Carolina
Current Conditions -  °F | °C
As of 10:54 PM on Wednesday 22 Oct 2014 (Local Time) from KUZA Reporting Station
Clear Clear  
Wind Chill: 47°   Ceiling: Unl
Heat Index: 49°   Visibility: 10mi
Dew Point: 39°   Wind: 6mph
Humidity: 69%   Direction: 340°NNW
Pressure: 30.12"   Gusts: NA
Location:  34.8583°N, 81.2178°W
Report Text: KUZA 230254Z AUTO 34005KT 10SM CLR 09/04 A3012 RMK AO2 SLP197 T00940039 51013
Loading
Personal Weather Stations






























Interactive Weather Map
Tropical Storm Tracking
New forecast layout! Learn more

10-Day Weather Forecast

Advertisements
Track Severe Weather on mobile